Forside
METAR-TAF:

METAR-TAF

Lufthavne :

Ōita, Japan

Breddekreds: 33-29N, længdekreds: 131-44E, højde: 5 m

Aktuelle vejr

Denne rapport blev lavet for 38 minutter siden, kl. 07:00 UTC
Vind 17 kt fra vestnordvest med vindstød på up til 29 kt, varierende mellem vestsydvest og nordnordvest
Temperatur 15°C
Fugtighed 29%
Tryk 1022 hPa
Sigt 10 km eller mere
Nogle få skyer i en højde af 3000 ft

METAR: RJFO 220700Z 30017G29KT 250V330 9999 FEW030 15/M03 Q1022

Tid: 16:38 (07:38 UTC)

Vejrudsigter

Denne rapport blev lavet for 2 timer og 33 minutter siden, kl. 05:05 UTC
Foreløbig gælder fra 22 på 06 UTC til 23 på 12 UTC
Vind 13 kt fra vestnordvest
Sigt 10 km eller mere
Nogle få skyer i en højde af 4000 ft
ændring
fra 22 på 10 UTC til 22 på 12 UTC
Vind 5 kt fra vest
ændring
fra 23 på 00 UTC til 23 på 03 UTC
Vind 12 kt fra nordvest

TAF: RJFO 220505Z 2206/2312 30013KT 9999 FEW040 BECMG 2210/2212 26005KT BECMG 2300/2303 31012KT

Vejrobservationer og prognoser fra mere end 4000 lufthavne (METAR og TAF).

De gule og røde prikker repræsenterer de meteorologiske stationer.

Flyt musen over at se navnet på stationen.

Så klik over at se vejr observationer og prognoser.

At skifte det kort: Klik på de grønne knapper med et sort kors for at zoome ind; på den grønne knap med en bindestreg for at zoome ud; eller på de grønne pile for tilstødende kort.


METAR-TAF: